createdAt,value
2019-01-03T00:02:23.500Z,32.00
2019-01-03T00:08:29.100Z,32.90
2019-01-03T00:11:27.971Z,32.50
2019-01-03T00:14:26.946Z,33.00
2019-01-03T00:17:17.352Z,33.10
2019-01-03T00:20:11.401Z,34.30
2019-01-03T00:23:14.300Z,33.60
2019-01-03T00:29:51.573Z,32.20
2019-01-03T00:32:55.670Z,32.00
2019-01-03T00:35:58.160Z,32.60
2019-01-03T01:46:53.007Z,41.70
2019-01-03T01:49:41.093Z,42.70
2019-01-03T01:52:31.338Z,42.70
2019-01-03T01:55:18.463Z,44.10
2019-01-03T01:58:05.476Z,44.30
2019-01-03T02:00:44.945Z,43.90
2019-01-03T02:03:31.654Z,46.20
2019-01-03T02:06:18.248Z,46.00
2019-01-03T02:09:21.140Z,47.20
2019-01-03T05:16:06.851Z,79.40
2019-01-03T05:19:11.639Z,79.30
2019-01-03T05:21:54.191Z,79.70
2019-01-03T05:24:42.496Z,79.30
2019-01-03T05:27:53.814Z,79.20
2019-01-03T05:30:49.430Z,79.30
2019-01-03T05:33:41.919Z,79.30
2019-01-03T05:36:24.990Z,79.10
2019-01-03T05:39:13.516Z,79.90
2019-01-03T05:42:11.978Z,80.20
2019-01-03T05:44:58.942Z,79.20
2019-01-03T05:47:53.405Z,80.20
2019-01-03T05:51:09.415Z,80.90
2019-01-03T05:57:54.768Z,79.20
2019-01-03T06:01:04.650Z,78.40
2019-01-03T06:04:25.248Z,78.00
2019-01-03T07:19:05.029Z,74.70
2019-01-03T07:22:37.033Z,76.10
2019-01-03T07:25:50.339Z,75.20
2019-01-03T07:36:44.992Z,73.80
2019-01-03T07:44:20.512Z,74.10
2019-01-03T07:47:31.429Z,73.90
2019-01-03T07:51:22.750Z,73.70
2019-01-03T07:54:38.813Z,74.20
2019-01-03T07:58:13.534Z,72.40
2019-01-03T08:01:39.702Z,72.90
2019-01-03T08:04:21.805Z,72.40
2019-01-03T08:07:08.828Z,70.90
2019-01-03T08:09:52.590Z,70.80
2019-01-03T08:12:55.603Z,70.60
2019-01-03T08:15:42.945Z,69.80
2019-01-03T08:18:36.417Z,69.30
2019-01-03T08:21:23.262Z,69.60
2019-01-03T08:24:09.903Z,68.70
2019-01-03T08:26:57.798Z,69.30
2019-01-03T08:29:57.861Z,69.10
2019-01-03T08:32:58.671Z,69.50
2019-01-03T08:35:45.460Z,68.50
2019-01-03T09:07:39.959Z,65.20
2019-01-03T09:19:02.530Z,64.90
2019-01-03T09:22:16.319Z,64.30
2019-01-03T09:25:24.454Z,64.20
2019-01-03T10:23:04.796Z,57.90
2019-01-03T10:31:15.318Z,57.00
2019-01-03T10:33:50.811Z,55.90
2019-01-03T10:37:09.042Z,56.20
2019-01-03T10:40:35.760Z,54.40
2019-01-03T10:43:02.289Z,55.80
2019-01-03T10:45:31.776Z,55.80
2019-01-03T10:48:07.919Z,57.60
2019-01-03T10:50:37.418Z,57.70
2019-01-03T10:53:10.462Z,58.50
2019-01-03T10:55:39.473Z,58.10
2019-01-03T10:58:08.609Z,59.20
2019-01-03T11:00:38.332Z,57.80
2019-01-03T11:03:07.520Z,58.70
2019-01-03T11:05:36.372Z,56.90
2019-01-03T11:08:05.250Z,59.10
2019-01-03T11:10:35.687Z,58.60
2019-01-03T11:13:04.530Z,57.50
2019-01-03T11:15:33.478Z,58.20
2019-01-03T11:18:02.568Z,57.30
2019-01-03T11:20:31.398Z,56.70
2019-01-03T11:23:00.342Z,55.40
2019-01-03T11:25:29.200Z,54.00
2019-01-03T11:27:58.077Z,53.50
2019-01-03T11:30:27.214Z,52.50
2019-01-03T11:32:56.170Z,56.30
2019-01-03T11:35:25.380Z,57.70
2019-01-03T11:37:54.418Z,60.10
2019-01-03T11:40:23.302Z,60.90
2019-01-03T11:42:52.433Z,62.30
2019-01-03T11:45:21.437Z,62.30
2019-01-03T11:47:51.126Z,63.40
2019-01-03T11:50:20.501Z,64.00
2019-01-03T11:52:50.066Z,65.80
2019-01-03T11:55:19.552Z,66.20
2019-01-03T11:57:49.417Z,66.40
2019-01-03T12:00:18.618Z,67.20
2019-01-03T12:02:52.129Z,69.00
2019-01-03T12:05:21.760Z,68.60
2019-01-03T12:07:51.259Z,69.40
2019-01-03T12:14:06.295Z,70.40
2019-01-03T12:16:35.300Z,67.60
2019-01-03T12:19:04.460Z,69.50
2019-01-03T12:21:33.388Z,69.20
2019-01-03T12:24:02.547Z,68.30
2019-01-03T12:26:31.839Z,68.20
2019-01-03T12:29:01.162Z,67.70
2019-01-03T12:31:30.689Z,68.20
2019-01-03T12:33:59.685Z,67.40
2019-01-03T12:36:28.737Z,65.80
2019-01-03T12:38:57.653Z,65.10
2019-01-03T12:41:27.255Z,67.00
2019-01-03T12:43:56.104Z,67.90
2019-01-03T12:46:25.014Z,68.60
2019-01-03T12:48:54.183Z,66.90
2019-01-03T12:51:23.150Z,68.00
2019-01-03T12:53:52.108Z,67.80
2019-01-03T12:56:20.970Z,65.80
2019-01-03T12:58:50.021Z,65.00
2019-01-03T13:01:19.006Z,64.50
2019-01-03T13:03:47.975Z,62.80
2019-01-03T13:06:20.965Z,62.10
2019-01-03T13:08:47.845Z,62.50
2019-01-03T13:11:16.757Z,60.70
2019-01-03T13:13:46.885Z,63.80
2019-01-03T13:16:15.849Z,63.60
2019-01-03T13:18:45.127Z,63.50
2019-01-03T13:21:14.446Z,62.40
2019-01-03T13:23:43.818Z,64.40
2019-01-03T13:26:12.979Z,66.00
2019-01-03T13:28:41.898Z,65.90
2019-01-03T13:31:11.964Z,68.40
2019-01-03T13:33:41.039Z,68.70
2019-01-03T13:36:11.682Z,68.40
2019-01-03T13:38:40.725Z,68.80
2019-01-03T13:41:13.383Z,67.80
2019-01-03T13:43:43.180Z,67.30
2019-01-03T13:46:15.340Z,69.00
2019-01-03T13:48:44.163Z,68.30
2019-01-03T13:51:13.256Z,68.10
2019-01-03T13:53:42.086Z,69.10
2019-01-03T13:56:11.670Z,69.40
2019-01-03T13:58:40.627Z,65.90
2019-01-03T14:01:09.780Z,65.20
2019-01-03T14:03:38.603Z,64.00
2019-01-03T14:06:08.061Z,63.10
2019-01-03T14:08:37.138Z,62.30
2019-01-03T14:11:07.347Z,63.20
2019-01-03T14:13:36.456Z,61.90
2019-01-03T14:16:05.467Z,61.60
2019-01-03T14:18:34.298Z,59.30
2019-01-03T14:21:03.402Z,59.40
2019-01-03T14:23:32.219Z,60.00
2019-01-03T14:26:01.272Z,60.30
2019-01-03T14:28:30.564Z,59.70
2019-01-03T14:30:59.396Z,60.70
2019-01-03T14:33:28.513Z,61.20
2019-01-03T14:35:57.452Z,61.70
2019-01-03T14:38:26.583Z,62.70
2019-01-03T14:40:55.481Z,63.80
2019-01-03T14:43:25.503Z,63.70
2019-01-03T14:45:54.423Z,64.00
2019-01-03T14:48:23.550Z,65.80
2019-01-03T14:50:52.394Z,66.00
2019-01-03T14:53:21.235Z,66.30
2019-01-03T14:55:50.150Z,66.40
2019-01-03T14:58:19.261Z,67.50
2019-01-03T15:00:48.222Z,68.00
2019-01-03T15:03:17.481Z,69.20
2019-01-03T15:05:46.341Z,70.00
2019-01-03T15:08:15.466Z,71.80
2019-01-03T15:10:45.648Z,72.20
2019-01-03T15:13:14.564Z,73.60
2019-01-03T15:15:43.403Z,74.20
2019-01-03T15:18:12.363Z,74.50
2019-01-03T15:20:41.286Z,74.50
2019-01-03T15:23:10.169Z,75.80
2019-01-03T15:25:38.997Z,75.70
2019-01-03T15:28:08.076Z,75.90
2019-01-03T15:30:36.992Z,74.90
2019-01-03T15:33:06.167Z,75.40
2019-01-03T15:35:35.156Z,77.10
2019-01-03T15:38:04.049Z,77.60
2019-01-03T15:40:33.343Z,78.00
2019-01-03T15:43:02.263Z,77.90
2019-01-03T15:45:31.245Z,77.20
2019-01-03T15:48:00.180Z,77.00
2019-01-03T15:50:29.903Z,77.30
2019-01-03T15:52:58.910Z,77.30
2019-01-03T15:55:28.017Z,76.90
2019-01-03T15:57:57.254Z,76.80
2019-01-03T16:00:26.406Z,76.80
2019-01-03T16:02:55.869Z,77.00
2019-01-03T16:05:25.224Z,76.60
2019-01-03T16:07:54.131Z,76.40
2019-01-03T16:10:23.253Z,76.70
2019-01-03T16:12:55.655Z,78.00
2019-01-03T16:15:24.906Z,79.00
2019-01-03T16:17:53.862Z,77.60
2019-01-03T16:20:22.878Z,77.30
2019-01-03T16:22:52.026Z,76.70
2019-01-03T16:25:21.637Z,77.10
2019-01-03T16:27:50.553Z,77.60
2019-01-03T16:30:19.813Z,78.80
2019-01-03T16:32:48.809Z,78.80
2019-01-03T16:35:17.783Z,78.50
2019-01-03T16:37:46.610Z,77.80
2019-01-03T16:40:15.510Z,79.10
2019-01-03T16:42:45.027Z,80.10
2019-01-03T16:45:14.543Z,79.80
2019-01-03T16:47:43.669Z,79.40
2019-01-03T16:50:14.673Z,79.00
2019-01-03T16:52:44.067Z,79.30
2019-01-03T16:55:13.183Z,79.50
2019-01-03T16:57:42.133Z,79.00
2019-01-03T17:00:12.292Z,78.80
2019-01-03T17:02:41.781Z,78.70
2019-01-03T17:05:10.924Z,78.90
2019-01-03T17:07:39.972Z,78.90
2019-01-03T17:10:11.935Z,78.60
2019-01-03T17:12:40.874Z,78.50
2019-01-03T17:15:09.942Z,78.70
2019-01-03T17:17:38.897Z,78.50
2019-01-03T17:20:09.713Z,78.60
2019-01-03T17:22:38.814Z,78.60
2019-01-03T17:25:09.965Z,78.20
2019-01-03T17:27:38.824Z,77.70
2019-01-03T17:30:08.537Z,77.70
2019-01-03T17:32:37.640Z,78.10
2019-01-03T17:35:07.890Z,77.70
2019-01-03T17:37:41.937Z,78.30
2019-01-03T17:40:28.044Z,78.20
2019-01-03T17:43:00.193Z,77.80
2019-01-03T17:45:29.436Z,78.80
2019-01-03T17:47:58.937Z,78.80
2019-01-03T17:50:28.706Z,78.70
2019-01-03T17:52:58.346Z,79.00
2019-01-03T17:55:27.626Z,79.00
2019-01-03T17:58:38.553Z,79.00
2019-01-03T18:01:12.196Z,79.00
2019-01-03T18:03:45.878Z,78.70
2019-01-03T18:06:18.870Z,79.60
2019-01-03T18:08:58.496Z,80.70
2019-01-03T18:11:25.491Z,80.30
2019-01-03T18:13:56.637Z,80.00
2019-01-03T18:16:26.116Z,80.60
2019-01-03T18:18:55.869Z,80.90
2019-01-03T18:21:25.166Z,81.00
2019-01-03T18:23:54.297Z,80.80
2019-01-03T18:26:23.201Z,80.60
2019-01-03T18:28:52.343Z,81.50
2019-01-03T18:31:21.203Z,82.40
2019-01-03T18:33:50.295Z,82.60
2019-01-03T18:36:19.444Z,82.40
2019-01-03T18:38:48.414Z,82.90
2019-01-03T18:41:17.409Z,83.00
2019-01-03T18:43:46.699Z,82.70
2019-01-03T18:46:16.098Z,82.50
2019-01-03T18:48:45.089Z,82.60
2019-01-03T18:51:14.227Z,82.20
2019-01-03T18:53:43.481Z,81.70
2019-01-03T18:56:12.413Z,82.10
2019-01-03T18:58:41.574Z,81.70
2019-01-03T19:01:15.238Z,81.70
2019-01-03T19:03:44.501Z,82.40
2019-01-03T19:06:17.521Z,82.10
2019-01-03T19:08:46.793Z,81.10
2019-01-03T19:11:15.889Z,81.30
2019-01-03T19:13:48.193Z,81.50
2019-01-03T19:16:17.179Z,81.00
2019-01-03T19:18:46.191Z,81.60
2019-01-03T19:21:15.731Z,82.80
2019-01-03T19:23:44.904Z,83.40
2019-01-03T19:26:13.957Z,83.90
2019-01-03T19:28:43.114Z,83.70
2019-01-03T19:31:11.967Z,83.40
2019-01-03T19:33:41.342Z,83.60
2019-01-03T19:36:10.490Z,84.10
2019-01-03T19:38:39.514Z,84.00
2019-01-03T19:41:08.601Z,84.20
2019-01-03T19:43:41.358Z,83.90
2019-01-03T19:46:15.646Z,83.80
2019-01-03T19:48:44.687Z,83.60
2019-01-03T19:51:14.125Z,83.40
2019-01-03T19:53:53.291Z,83.20
2019-01-03T19:56:24.688Z,82.40
2019-01-03T19:58:53.809Z,81.30
2019-01-03T20:01:22.725Z,80.30
2019-01-03T20:03:54.835Z,81.00
2019-01-03T20:06:24.582Z,81.50
2019-01-03T20:08:53.627Z,81.60
2019-01-03T20:11:23.291Z,82.90
2019-01-03T20:13:52.521Z,82.70
2019-01-03T20:16:21.764Z,82.80
2019-01-03T20:19:06.311Z,83.60
2019-01-03T20:21:36.135Z,84.20
2019-01-03T20:24:05.436Z,84.80
2019-01-03T20:26:41.905Z,85.50
2019-01-03T20:29:25.190Z,85.80
2019-01-03T20:31:54.275Z,86.40
2019-01-03T20:34:32.690Z,87.20
2019-01-03T20:37:01.767Z,87.50
2019-01-03T20:39:30.639Z,88.00
2019-01-03T20:41:59.489Z,88.10
2019-01-03T20:44:28.354Z,88.50
2019-01-03T20:46:57.235Z,88.40
2019-01-03T20:49:26.499Z,88.40
2019-01-03T20:51:55.566Z,88.40
2019-01-03T20:54:24.334Z,88.20
2019-01-03T20:56:53.551Z,88.30
2019-01-03T20:59:22.619Z,88.60
2019-01-03T21:01:51.436Z,88.80
2019-01-03T21:04:20.552Z,88.40
2019-01-03T21:06:49.367Z,87.80
2019-01-03T21:09:18.119Z,88.10
2019-01-03T21:11:47.231Z,88.20
2019-01-03T21:14:16.490Z,88.00
2019-01-03T21:16:45.286Z,87.90
2019-01-03T21:19:14.134Z,88.60
2019-01-03T21:21:43.141Z,87.60
2019-01-03T21:24:11.949Z,87.00
2019-01-03T21:26:41.025Z,86.80
2019-01-03T21:29:10.054Z,86.40
2019-01-03T21:31:38.879Z,86.60
2019-01-03T21:34:07.978Z,86.70
2019-01-03T21:36:36.843Z,86.60
2019-01-03T21:39:06.136Z,87.00
2019-01-03T21:41:35.029Z,87.20
2019-01-03T21:44:04.120Z,87.00
2019-01-03T21:46:33.166Z,87.00
2019-01-03T21:49:01.955Z,87.30
2019-01-03T21:51:30.689Z,87.40
2019-01-03T21:53:59.728Z,87.70
2019-01-03T21:56:28.585Z,88.30
2019-01-03T21:58:57.703Z,88.60
2019-01-03T22:01:26.591Z,89.30
2019-01-03T22:03:55.414Z,89.40
2019-01-03T22:06:24.236Z,90.00
2019-01-03T22:08:52.987Z,90.30
2019-01-03T22:11:22.026Z,90.20
2019-01-03T22:13:51.063Z,89.70
2019-01-03T22:16:19.823Z,89.60
2019-01-03T22:18:48.614Z,88.90
2019-01-03T22:21:17.428Z,88.80
2019-01-03T22:23:46.303Z,88.80
2019-01-03T22:26:15.346Z,88.70
2019-01-03T22:28:44.171Z,88.50
2019-01-03T22:31:13.002Z,87.90
2019-01-03T22:33:41.777Z,87.10
2019-01-03T22:36:10.575Z,86.40
2019-01-03T22:38:39.362Z,86.10
2019-01-03T22:41:08.224Z,85.60
2019-01-03T22:43:37.041Z,85.70
2019-01-03T22:46:05.913Z,85.70
2019-01-03T22:48:35.692Z,85.60
2019-01-03T22:51:04.507Z,86.10
2019-01-03T22:53:33.296Z,86.40
2019-01-03T22:56:02.060Z,85.80
2019-01-03T22:58:30.844Z,85.70
2019-01-03T23:00:59.888Z,85.40
2019-01-03T23:03:28.756Z,86.10
2019-01-03T23:05:57.683Z,86.10
2019-01-03T23:08:26.586Z,85.90
2019-01-03T23:10:55.452Z,86.00
2019-01-03T23:13:24.484Z,86.00
2019-01-03T23:15:53.279Z,85.80
2019-01-03T23:18:22.044Z,85.70
2019-01-03T23:20:50.865Z,85.40
2019-01-03T23:23:19.599Z,84.80
2019-01-03T23:25:48.392Z,84.40
2019-01-03T23:28:17.226Z,84.50
2019-01-03T23:30:46.287Z,84.60
2019-01-03T23:33:15.128Z,84.60
2019-01-03T23:35:44.163Z,84.80
2019-01-03T23:38:13.025Z,84.80
2019-01-03T23:40:41.938Z,85.10
2019-01-03T23:43:10.747Z,85.40
2019-01-03T23:45:39.909Z,85.20
2019-01-03T23:48:08.699Z,84.80
2019-01-03T23:50:37.625Z,84.50
2019-01-03T23:53:06.554Z,84.50
2019-01-03T23:55:39.451Z,84.80
2019-01-03T23:58:08.244Z,83.60
